Time;durP1;ratioP1;P1;durP2;ratioP2;P2;SDS_P1;SDS_P2;PMS_P1;PMS_P2;Temp;Humidity;BMP_temperature;BMP_pressure;BME280_temperature;BME280_humidity;BME280_pressure;Samples;Min_cycle;Max_cycle;Signal;HPM_P1;HPM_P2
2022/12/12 00:01:32;;;;;;;2.03;1.92;;;;;;;;;;5094603;28;20358;-23
2022/12/12 00:03:58;;;;;;;2.03;1.92;;;;;;;;;;5094262;28;20012;-23
2022/12/12 00:06:25;;;;;;;2.33;2.20;;;;;;;;;;5094281;28;20328;-25
2022/12/12 00:08:51;;;;;;;2.28;2.17;;;;;;;;;;5094497;28;20035;-23
2022/12/12 00:11:17;;;;;;;2.03;1.92;;;;;;;;;;5094246;28;20046;-22
2022/12/12 00:13:44;;;;;;;2.20;2.00;;;;;;;;;;5094155;28;20024;-24
2022/12/12 00:16:11;;;;;;;1.98;1.88;;;;;;;;;;5094953;28;20028;-23
2022/12/12 00:18:37;;;;;;;2.58;2.45;;;;;;;;;;5094448;28;20036;-23
2022/12/12 00:21:05;;;;;;;2.33;2.22;;;;;;;;;;5094116;28;20032;-22
2022/12/12 00:23:31;;;;;;;2.83;2.63;;;;;;;;;;5094078;28;20024;-24
2022/12/12 00:25:58;;;;;;;1.83;1.73;;;;;;;;;;5096315;28;20024;-22
2022/12/12 00:28:25;;;;;;;2.40;2.22;;;;;;;;;;5097832;28;20027;-22
2022/12/12 00:30:51;;;;;;;2.55;2.35;;;;;;;;;;5097731;28;20047;-25
2022/12/12 00:33:17;;;;;;;1.95;1.85;;;;;;;;;;5097637;28;20024;-23
2022/12/12 00:35:44;;;;;;;2.33;2.22;;;;;;;;;;5097908;28;20111;-22
2022/12/12 00:38:10;;;;;;;2.13;2.03;;;;;;;;;;5097539;28;20081;-23
2022/12/12 00:40:36;;;;;;;2.25;2.15;;;;;;;;;;5097568;28;20059;-23
2022/12/12 00:43:02;;;;;;;2.63;2.53;;;;;;;;;;5097428;28;20031;-22
2022/12/12 00:45:28;;;;;;;2.50;2.30;;;;;;;;;;5097372;28;20036;-23
2022/12/12 00:47:55;;;;;;;1.92;1.83;;;;;;;;;;5097372;28;20148;-25
2022/12/12 00:50:21;;;;;;;1.70;1.60;;;;;;;;;;5097875;28;20028;-24
2022/12/12 00:52:47;;;;;;;2.30;2.20;;;;;;;;;;5097251;28;20082;-27
2022/12/12 00:55:13;;;;;;;2.47;2.28;;;;;;;;;;5097219;28;20028;-24
2022/12/12 00:57:40;;;;;;;2.00;1.90;;;;;;;;;;5097175;28;20446;-23
2022/12/12 01:00:07;;;;;;;2.08;1.98;;;;;;;;;;5096160;28;20420;-26
2022/12/12 01:02:33;;;;;;;4.25;1.92;;;;;;;;;;5097066;28;20020;-24
2022/12/12 01:04:59;;;;;;;2.38;2.25;;;;;;;;;;5097026;28;20103;-22
2022/12/12 01:07:25;;;;;;;2.35;2.20;;;;;;;;;;5097037;28;20165;-23
2022/12/12 01:09:51;;;;;;;2.05;1.95;;;;;;;;;;5096988;28;20028;-24
2022/12/12 01:12:17;;;;;;;2.03;1.92;;;;;;;;;;5096888;28;20028;-25
2022/12/12 01:14:44;;;;;;;2.47;2.38;;;;;;;;;;5095975;28;20024;-23
2022/12/12 01:17:10;;;;;;;2.13;2.03;;;;;;;;;;5096618;28;20413;-23
2022/12/12 01:19:36;;;;;;;1.95;1.85;;;;;;;;;;5096999;28;20028;-25
2022/12/12 01:22:02;;;;;;;2.10;2.00;;;;;;;;;;5096628;28;20028;-22
2022/12/12 01:24:28;;;;;;;2.42;2.22;;;;;;;;;;5096768;28;20024;-23
2022/12/12 01:26:54;;;;;;;2.15;2.05;;;;;;;;;;5096903;28;20051;-26
2022/12/12 01:29:20;;;;;;;2.17;1.98;;;;;;;;;;5096916;28;20028;-23
2022/12/12 01:31:47;;;;;;;1.65;1.55;;;;;;;;;;5096481;28;20032;-22
2022/12/12 01:34:13;;;;;;;2.22;2.03;;;;;;;;;;5096740;28;20055;-23
2022/12/12 01:36:39;;;;;;;2.53;2.00;;;;;;;;;;5096375;28;20052;-23
2022/12/12 01:39:05;;;;;;;2.28;2.17;;;;;;;;;;5096570;28;20031;-30
2022/12/12 01:41:32;;;;;;;1.90;1.80;;;;;;;;;;5096619;28;20352;-23
2022/12/12 01:44:01;;;;;;;2.00;1.90;;;;;;;;;;5095250;28;20024;-25
2022/12/12 01:46:39;;;;;;;2.20;2.10;;;;;;;;;;5095294;28;20092;-25
2022/12/12 01:49:15;;;;;;;1.80;1.70;;;;;;;;;;5096183;28;20028;-25
2022/12/12 01:51:42;;;;;;;2.00;1.90;;;;;;;;;;5096493;28;20416;-25
2022/12/12 01:54:11;;;;;;;2.15;2.05;;;;;;;;;;5096049;28;20051;-26
2022/12/12 01:56:38;;;;;;;2.25;2.05;;;;;;;;;;5096351;28;20340;-22
2022/12/12 01:59:07;;;;;;;2.13;2.03;;;;;;;;;;5096713;28;20039;-23
2022/12/12 02:01:33;;;;;;;2.40;2.20;;;;;;;;;;5095965;28;20024;-23
2022/12/12 02:04:00;;;;;;;2.63;2.53;;;;;;;;;;5096109;28;20346;-23
2022/12/12 02:06:27;;;;;;;2.00;1.90;;;;;;;;;;5096163;28;20095;-23
2022/12/12 02:08:56;;;;;;;2.08;1.98;;;;;;;;;;5096102;28;20028;-23
2022/12/12 02:11:22;;;;;;;2.15;2.05;;;;;;;;;;5095794;28;20020;-22
2022/12/12 02:13:49;;;;;;;2.30;2.20;;;;;;;;;;5095643;28;20448;-25
2022/12/12 02:16:34;;;;;;;2.10;2.00;;;;;;;;;;5095970;28;20036;-24
2022/12/12 02:19:00;;;;;;;2.42;2.33;;;;;;;;;;5095587;28;20455;-23
2022/12/12 02:21:35;;;;;;;2.33;2.20;;;;;;;;;;5095920;28;20028;-22
2022/12/12 02:24:14;;;;;;;2.10;2.00;;;;;;;;;;5095521;28;20047;-23
2022/12/12 02:26:58;;;;;;;2.15;2.00;;;;;;;;;;5094565;28;20038;-23
2022/12/12 02:29:27;;;;;;;2.47;2.28;;;;;;;;;;5095429;28;20027;-24
2022/12/12 02:31:53;;;;;;;2.63;2.42;;;;;;;;;;5095349;28;20086;-23
2022/12/12 02:34:38;;;;;;;2.30;2.20;;;;;;;;;;5095431;28;20038;-27
2022/12/12 02:37:07;;;;;;;1.90;1.80;;;;;;;;;;5095615;28;20023;-23
2022/12/12 02:39:47;;;;;;;2.05;1.95;;;;;;;;;;5095269;28;20028;-23
2022/12/12 02:42:22;;;;;;;2.55;2.35;;;;;;;;;;5095210;28;20031;-23
2022/12/12 02:45:09;;;;;;;2.28;2.08;;;;;;;;;;5095518;28;20028;-24
2022/12/12 02:47:39;;;;;;;2.00;1.90;;;;;;;;;;5094999;28;20044;-23
2022/12/12 02:50:10;;;;;;;2.22;2.13;;;;;;;;;;5095984;28;20111;-22
2022/12/12 02:52:37;;;;;;;3.05;1.92;;;;;;;;;;5095315;28;20380;-25
2022/12/12 02:55:03;;;;;;;2.22;2.08;;;;;;;;;;5095293;28;20039;-24
2022/12/12 02:57:30;;;;;;;2.13;2.03;;;;;;;;;;5095167;28;20024;-23
2022/12/12 02:59:59;;;;;;;2.08;1.98;;;;;;;;;;5094973;28;20016;-23
2022/12/12 03:02:31;;;;;;;2.05;1.95;;;;;;;;;;5093883;28;20458;-24
2022/12/12 03:07:54;;;;;;;2.20;2.03;;;;;;;;;;5094930;28;20102;-22
2022/12/12 03:10:26;;;;;;;2.15;2.00;;;;;;;;;;5094766;28;20093;-23
2022/12/12 03:12:59;;;;;;;1.70;1.60;;;;;;;;;;5095031;28;20031;-28
2022/12/12 03:15:38;;;;;;;2.45;2.25;;;;;;;;;;5094781;28;20043;-24
2022/12/12 03:18:16;;;;;;;1.85;1.75;;;;;;;;;;5094481;28;20047;-24
2022/12/12 03:20:51;;;;;;;1.80;1.70;;;;;;;;;;5095047;28;20020;-22
2022/12/12 03:23:21;;;;;;;1.88;1.77;;;;;;;;;;5093648;28;20357;-22
2022/12/12 03:25:50;;;;;;;2.10;2.00;;;;;;;;;;5094697;28;20447;-24
2022/12/12 03:28:19;;;;;;;2.50;2.33;;;;;;;;;;5094911;28;20266;-22
2022/12/12 03:30:47;;;;;;;2.60;2.20;;;;;;;;;;5094885;28;20096;-24
2022/12/12 03:33:26;;;;;;;2.22;2.13;;;;;;;;;;5093592;28;20472;-26
2022/12/12 03:36:04;;;;;;;2.13;2.03;;;;;;;;;;5094878;28;20024;-22
2022/12/12 03:38:36;;;;;;;2.22;2.03;;;;;;;;;;5094811;28;20032;-23
2022/12/12 03:41:04;;;;;;;1.90;1.80;;;;;;;;;;5094765;28;20024;-22
2022/12/12 03:43:33;;;;;;;1.77;1.67;;;;;;;;;;5094732;28;20025;-24
2022/12/12 03:46:08;;;;;;;2.00;1.90;;;;;;;;;;5094468;28;20032;-22
2022/12/12 03:48:36;;;;;;;2.10;2.00;;;;;;;;;;5094729;28;20039;-22
2022/12/12 03:51:04;;;;;;;1.85;1.75;;;;;;;;;;5094722;28;20105;-23
2022/12/12 03:53:33;;;;;;;2.47;2.28;;;;;;;;;;5094278;28;20034;-27
2022/12/12 03:56:03;;;;;;;2.00;1.90;;;;;;;;;;5094372;28;20028;-23
2022/12/12 03:58:36;;;;;;;1.83;1.73;;;;;;;;;;5094347;28;20119;-25
2022/12/12 04:01:03;;;;;;;2.05;1.95;;;;;;;;;;5096350;28;20392;-23
2022/12/12 04:03:35;;;;;;;1.77;1.67;;;;;;;;;;5098539;28;20043;-24
2022/12/12 04:06:26;;;;;;;1.88;1.77;;;;;;;;;;5098514;28;20024;-22
2022/12/12 04:14:52;;;;;;;1.90;1.80;;;;;;;;;;5098376;28;20416;-27
2022/12/12 04:17:23;;;;;;;2.20;2.10;;;;;;;;;;5097781;28;20058;-25
2022/12/12 04:23:23;;;;;;;2.10;2.00;;;;;;;;;;5098149;28;20039;-27
2022/12/12 04:26:37;;;;;;;1.90;1.70;;;;;;;;;;5088957;28;20021;-25
2022/12/12 04:28:25;;;;;;;2.53;2.33;;;;;;;;;;5097671;28;20059;-23
2022/12/12 04:30:51;;;;;;;1.80;1.70;;;;;;;;;;5097709;28;20039;-24
2022/12/12 04:33:19;;;;;;;1.77;1.67;;;;;;;;;;5097542;28;20121;-23
2022/12/12 04:35:48;;;;;;;2.08;1.98;;;;;;;;;;5097626;28;20044;-22
2022/12/12 04:38:22;;;;;;;1.70;1.60;;;;;;;;;;5097564;28;20085;-23
2022/12/12 04:40:53;;;;;;;2.25;2.08;;;;;;;;;;5097446;28;20365;-24
2022/12/12 04:43:25;;;;;;;1.88;1.77;;;;;;;;;;5097352;28;20045;-24
2022/12/12 04:45:54;;;;;;;2.10;1.90;;;;;;;;;;5097697;28;20020;-24
2022/12/12 04:48:24;;;;;;;1.90;1.80;;;;;;;;;;5097402;28;20024;-24
2022/12/12 04:50:52;;;;;;;1.92;1.80;;;;;;;;;;5097317;28;20028;-24
2022/12/12 04:53:21;;;;;;;2.03;1.92;;;;;;;;;;5097233;28;20501;-26
2022/12/12 04:55:51;;;;;;;1.85;1.75;;;;;;;;;;5096224;28;20089;-25
2022/12/12 04:58:17;;;;;;;2.08;1.98;;;;;;;;;;5096097;28;20031;-23
2022/12/12 05:00:51;;;;;;;1.65;1.55;;;;;;;;;;5096939;28;20027;-26
2022/12/12 05:03:19;;;;;;;3.03;2.10;;;;;;;;;;5097114;28;20020;-26
2022/12/12 05:05:53;;;;;;;2.10;1.98;;;;;;;;;;5096855;28;20470;-26
2022/12/12 05:08:22;;;;;;;1.83;1.73;;;;;;;;;;5097206;28;20093;-23
2022/12/12 05:10:50;;;;;;;1.80;1.70;;;;;;;;;;5095554;28;20067;-24
2022/12/12 05:13:18;;;;;;;2.13;1.40;;;;;;;;;;5096603;28;20043;-22
2022/12/12 05:15:45;;;;;;;2.40;2.20;;;;;;;;;;5096651;28;20059;-23
2022/12/12 05:18:11;;;;;;;1.80;1.70;;;;;;;;;;5096171;28;20466;-25
2022/12/12 05:20:38;;;;;;;1.83;1.73;;;;;;;;;;5096575;28;20043;-24
2022/12/12 05:23:04;;;;;;;1.63;1.52;;;;;;;;;;5096426;28;20031;-24
2022/12/12 05:25:31;;;;;;;1.63;1.52;;;;;;;;;;5095992;28;20032;-26
2022/12/12 05:27:57;;;;;;;2.55;2.35;;;;;;;;;;5096525;28;20020;-23
2022/12/12 05:30:23;;;;;;;6.20;1.83;;;;;;;;;;5096275;28;20028;-24
2022/12/12 05:32:50;;;;;;;1.70;1.60;;;;;;;;;;5096231;28;20030;-24
2022/12/12 05:35:16;;;;;;;2.13;1.92;;;;;;;;;;5096612;28;20408;-25
2022/12/12 05:37:42;;;;;;;1.70;1.60;;;;;;;;;;5096156;28;20031;-30
2022/12/12 05:40:09;;;;;;;2.20;2.00;;;;;;;;;;5096189;28;20157;-24
2022/12/12 05:42:35;;;;;;;3.00;2.00;;;;;;;;;;5096100;28;20362;-24
2022/12/12 05:45:01;;;;;;;2.30;2.13;;;;;;;;;;5096800;28;20028;-23
2022/12/12 05:47:27;;;;;;;2.13;2.00;;;;;;;;;;5096346;28;20020;-30
2022/12/12 05:49:54;;;;;;;1.92;1.75;;;;;;;;;;5096015;28;20085;-23
2022/12/12 05:52:20;;;;;;;4.38;1.63;;;;;;;;;;5096442;28;20063;-24
2022/12/12 05:54:46;;;;;;;1.80;1.70;;;;;;;;;;5095956;28;20101;-23
2022/12/12 05:57:12;;;;;;;8.98;1.73;;;;;;;;;;5095755;28;20024;-30
2022/12/12 05:59:38;;;;;;;2.20;2.00;;;;;;;;;;5095985;28;20028;-24
2022/12/12 06:02:05;;;;;;;2.28;2.08;;;;;;;;;;5543419;22;20397;-32
2022/12/12 06:04:31;;;;;;;2.33;2.13;;;;;;;;;;5075007;28;20107;-31
2022/12/12 06:06:57;;;;;;;2.20;1.80;;;;;;;;;;5058124;28;20466;-31
2022/12/12 06:09:24;;;;;;;2.67;2.20;;;;;;;;;;5075492;28;20107;-31
2022/12/12 06:11:50;;;;;;;2.67;1.70;;;;;;;;;;5077193;28;20092;-31
2022/12/12 06:14:16;;;;;;;2.13;1.92;;;;;;;;;;5095582;28;20034;-32
2022/12/12 06:16:42;;;;;;;2.10;1.90;;;;;;;;;;5095535;28;20078;-32
2022/12/12 06:19:08;;;;;;;1.48;1.38;;;;;;;;;;5095637;28;20340;-32
2022/12/12 06:21:34;;;;;;;1.70;1.60;;;;;;;;;;5095964;28;20020;-31
2022/12/12 06:24:00;;;;;;;3.70;2.42;;;;;;;;;;5094623;28;20332;-32
2022/12/12 06:26:27;;;;;;;2.42;1.80;;;;;;;;;;5095362;28;20518;-33
2022/12/12 06:28:53;;;;;;;3.47;2.40;;;;;;;;;;5095362;28;20056;-32
2022/12/12 06:31:19;;;;;;;2.08;1.92;;;;;;;;;;5095501;28;20043;-33
2022/12/12 06:33:45;;;;;;;3.95;2.17;;;;;;;;;;5095187;28;20055;-33
2022/12/12 06:36:22;;;;;;;2.70;2.13;;;;;;;;;;5095377;28;20108;-31
2022/12/12 06:38:48;;;;;;;2.28;1.70;;;;;;;;;;5094835;28;20113;-30
2022/12/12 06:41:15;;;;;;;4.03;2.20;;;;;;;;;;5094966;28;20474;-30
2022/12/12 06:43:42;;;;;;;2.30;2.10;;;;;;;;;;5094903;28;20079;-31
2022/12/12 06:46:09;;;;;;;2.10;1.90;;;;;;;;;;5077061;28;20028;-31
2022/12/12 06:48:36;;;;;;;5.70;2.30;;;;;;;;;;5095363;28;20485;-32
2022/12/12 06:51:06;;;;;;;3.78;2.15;;;;;;;;;;5095482;28;20469;-31
2022/12/12 06:53:32;;;;;;;4.55;2.20;;;;;;;;;;5095163;28;20101;-31
2022/12/12 06:55:58;;;;;;;2.45;1.98;;;;;;;;;;5076967;28;20032;-31
2022/12/12 06:58:24;;;;;;;5.18;2.33;;;;;;;;;;5095061;28;20024;-31
2022/12/12 07:00:53;;;;;;;2.67;2.03;;;;;;;;;;5094598;28;20062;-32
2022/12/12 07:03:19;;;;;;;3.38;2.42;;;;;;;;;;5094675;28;20050;-30
2022/12/12 07:05:46;;;;;;;5.07;2.20;;;;;;;;;;5094564;28;20559;-31
2022/12/12 07:08:13;;;;;;;3.20;2.00;;;;;;;;;;5094915;28;20028;-31
2022/12/12 07:10:40;;;;;;;3.50;1.80;;;;;;;;;;5095035;28;20028;-32
2022/12/12 07:13:06;;;;;;;6.20;2.10;;;;;;;;;;5094675;28;20024;-34
2022/12/12 07:15:32;;;;;;;3.95;2.97;;;;;;;;;;5094494;28;20027;-32
2022/12/12 07:17:58;;;;;;;5.05;2.10;;;;;;;;;;5094331;28;20032;-32
2022/12/12 07:20:24;;;;;;;2.40;1.80;;;;;;;;;;5094850;28;20031;-31
2022/12/12 07:22:51;;;;;;;3.90;2.35;;;;;;;;;;5094666;28;20103;-30
2022/12/12 07:25:17;;;;;;;2.03;1.90;;;;;;;;;;5094992;28;20043;-31
2022/12/12 07:27:43;;;;;;;5.20;2.28;;;;;;;;;;5094735;28;20089;-31
2022/12/12 07:30:09;;;;;;;3.55;2.13;;;;;;;;;;5094751;28;20020;-32
2022/12/12 07:32:35;;;;;;;2.20;2.00;;;;;;;;;;5076611;28;20035;-30
2022/12/12 07:35:02;;;;;;;5.25;3.33;;;;;;;;;;5096390;28;20024;-31
2022/12/12 07:37:28;;;;;;;4.60;2.38;;;;;;;;;;5098902;28;20403;-31
2022/12/12 07:39:54;;;;;;;5.53;2.75;;;;;;;;;;5098400;28;20039;-32
2022/12/12 07:42:20;;;;;;;9.35;2.08;;;;;;;;;;5098671;28;20016;-31
2022/12/12 07:44:46;;;;;;;4.53;2.47;;;;;;;;;;5098986;28;20030;-32
2022/12/12 07:47:12;;;;;;;2.70;2.05;;;;;;;;;;5098445;28;20093;-30
2022/12/12 07:49:39;;;;;;;7.18;2.50;;;;;;;;;;5098438;28;20032;-31
2022/12/12 07:52:05;;;;;;;8.02;2.45;;;;;;;;;;5098563;28;20036;-32
2022/12/12 07:54:31;;;;;;;3.95;2.30;;;;;;;;;;5080468;28;20023;-32
2022/12/12 07:56:59;;;;;;;6.05;2.08;;;;;;;;;;5098554;28;20047;-32
2022/12/12 07:59:25;;;;;;;11.88;2.75;;;;;;;;;;5080311;28;20028;-32
2022/12/12 08:01:51;;;;;;;5.22;2.20;;;;;;;;;;5080207;28;20059;-32
2022/12/12 08:04:17;;;;;;;5.20;2.03;;;;;;;;;;5080141;28;20417;-32
2022/12/12 08:06:44;;;;;;;6.78;2.00;;;;;;;;;;5098153;28;20024;-32
2022/12/12 08:09:10;;;;;;;5.70;2.30;;;;;;;;;;5098368;28;20032;-32
2022/12/12 08:11:38;;;;;;;4.80;2.20;;;;;;;;;;5098725;28;20032;-31
2022/12/12 08:14:07;;;;;;;6.28;1.85;;;;;;;;;;5098085;28;20084;-31
2022/12/12 08:16:33;;;;;;;3.85;2.20;;;;;;;;;;5097833;28;20043;-33
2022/12/12 08:18:59;;;;;;;6.72;2.47;;;;;;;;;;5097881;28;20032;-32
2022/12/12 08:21:26;;;;;;;7.95;2.78;;;;;;;;;;5097743;28;20043;-32
2022/12/12 08:23:57;;;;;;;4.68;2.47;;;;;;;;;;5079776;28;20513;-33
2022/12/12 08:26:23;;;;;;;8.43;3.57;;;;;;;;;;5097701;28;20059;-31
2022/12/12 08:28:49;;;;;;;10.50;2.58;;;;;;;;;;5097499;28;20254;-32
2022/12/12 08:31:21;;;;;;;18.42;3.10;;;;;;;;;;5097652;28;20054;-32
2022/12/12 08:33:51;;;;;;;7.53;3.10;;;;;;;;;;5097812;28;20478;-31
2022/12/12 08:36:19;;;;;;;8.85;2.97;;;;;;;;;;5098091;28;20103;-32
2022/12/12 08:38:46;;;;;;;17.65;4.60;;;;;;;;;;5097782;28;20028;-32
2022/12/12 08:41:13;;;;;;;4.93;2.00;;;;;;;;;;5097674;28;20038;-31
2022/12/12 08:43:40;;;;;;;4.32;1.90;;;;;;;;;;5079396;28;20032;-32
2022/12/12 08:46:07;;;;;;;2.58;2.00;;;;;;;;;;5096616;28;20103;-32
2022/12/12 08:48:33;;;;;;;9.40;2.10;;;;;;;;;;5097324;28;20028;-32
2022/12/12 08:50:59;;;;;;;8.52;2.47;;;;;;;;;;5097272;28;20102;-32
2022/12/12 08:53:26;;;;;;;4.30;2.05;;;;;;;;;;5097034;28;20024;-31
2022/12/12 08:55:53;;;;;;;7.28;3.08;;;;;;;;;;5097311;28;20028;-31
2022/12/12 08:58:19;;;;;;;9.80;2.38;;;;;;;;;;5096973;28;20040;-32
2022/12/12 09:00:45;;;;;;;5.65;2.30;;;;;;;;;;5097638;28;20107;-32
2022/12/12 09:03:11;;;;;;;7.35;3.80;;;;;;;;;;5096797;28;20458;-32
2022/12/12 09:05:41;;;;;;;7.72;3.28;;;;;;;;;;5097002;28;20512;-32
2022/12/12 09:08:08;;;;;;;12.57;3.55;;;;;;;;;;5097556;28;20382;-32
2022/12/12 09:10:34;;;;;;;6.10;2.85;;;;;;;;;;5079062;28;20097;-32
2022/12/12 09:13:00;;;;;;;9.40;3.72;;;;;;;;;;5097006;28;20032;-32
2022/12/12 09:15:26;;;;;;;9.38;2.97;;;;;;;;;;5097026;28;20058;-32
2022/12/12 09:17:52;;;;;;;7.45;3.20;;;;;;;;;;5096660;28;20028;-31
2022/12/12 09:20:18;;;;;;;8.80;2.92;;;;;;;;;;5096609;28;20464;-32
2022/12/12 09:22:45;;;;;;;6.50;2.42;;;;;;;;;;5096587;28;20016;-31
2022/12/12 09:25:11;;;;;;;9.50;2.35;;;;;;;;;;5096817;28;20032;-32
2022/12/12 09:27:37;;;;;;;13.27;2.90;;;;;;;;;;5096593;28;20024;-32
2022/12/12 09:30:03;;;;;;;8.65;3.05;;;;;;;;;;5096510;28;20061;-32
2022/12/12 09:32:29;;;;;;;4.85;3.25;;;;;;;;;;5096656;28;20024;-33
2022/12/12 09:34:55;;;;;;;8.18;2.67;;;;;;;;;;5096473;28;20476;-33
2022/12/12 09:37:22;;;;;;;12.80;2.58;;;;;;;;;;5096638;28;20103;-32
2022/12/12 09:39:51;;;;;;;6.40;2.60;;;;;;;;;;5097123;28;20439;-31
2022/12/12 09:42:19;;;;;;;7.57;2.58;;;;;;;;;;5096494;28;20115;-32
2022/12/12 09:44:46;;;;;;;7.97;2.63;;;;;;;;;;5096299;28;20465;-32
2022/12/12 09:47:15;;;;;;;5.53;2.72;;;;;;;;;;5096288;28;20053;-31
2022/12/12 09:49:47;;;;;;;4.45;2.33;;;;;;;;;;5096493;28;20020;-33
2022/12/12 09:52:15;;;;;;;6.18;2.70;;;;;;;;;;5095977;28;20040;-31
2022/12/12 09:54:41;;;;;;;8.98;2.80;;;;;;;;;;5096137;28;20062;-31
2022/12/12 09:57:07;;;;;;;8.13;3.22;;;;;;;;;;5096008;28;20354;-31
2022/12/12 09:59:33;;;;;;;3.70;2.35;;;;;;;;;;5095493;28;20112;-32
2022/12/12 10:02:04;;;;;;;11.70;4.10;;;;;;;;;;5095725;28;20032;-30
2022/12/12 10:04:33;;;;;;;11.05;3.28;;;;;;;;;;5096454;28;20032;-30
2022/12/12 10:07:18;;;;;;;15.60;4.80;;;;;;;;;;5095585;28;20032;-32
2022/12/12 10:10:02;;;;;;;11.88;2.67;;;;;;;;;;5096036;28;20052;-33
2022/12/12 10:12:29;;;;;;;7.05;3.00;;;;;;;;;;5095830;28;20112;-33
2022/12/12 10:14:59;;;;;;;4.20;2.88;;;;;;;;;;5095613;28;20032;-33
2022/12/12 10:17:31;;;;;;;13.30;4.15;;;;;;;;;;5095534;28;20028;-33
2022/12/12 10:20:01;;;;;;;11.93;3.22;;;;;;;;;;5095619;28;20089;-32
2022/12/12 10:22:46;;;;;;;9.77;2.97;;;;;;;;;;5095187;28;20055;-32
2022/12/12 10:25:30;;;;;;;7.13;3.20;;;;;;;;;;5095759;28;20020;-32
2022/12/12 10:28:04;;;;;;;11.20;2.60;;;;;;;;;;5095180;28;20051;-32
2022/12/12 10:30:31;;;;;;;10.68;2.88;;;;;;;;;;5095319;28;20027;-32
2022/12/12 10:33:10;;;;;;;9.25;2.72;;;;;;;;;;5095159;28;20111;-32
2022/12/12 10:35:51;;;;;;;22.80;4.00;;;;;;;;;;5095197;28;20108;-32
2022/12/12 10:38:43;;;;;;;5.03;3.40;;;;;;;;;;5095082;28;20024;-30
2022/12/12 10:41:42;;;;;;;15.00;3.20;;;;;;;;;;5095171;28;20405;-31
2022/12/12 10:44:08;;;;;;;10.48;2.90;;;;;;;;;;5050868;28;20043;-31
2022/12/12 10:46:38;;;;;;;14.88;3.35;;;;;;;;;;5095091;28;20024;-31
2022/12/12 10:49:13;;;;;;;13.35;3.63;;;;;;;;;;5094204;28;20027;-31
2022/12/12 10:51:39;;;;;;;7.97;2.53;;;;;;;;;;5095640;28;20023;-31
2022/12/12 10:54:11;;;;;;;5.18;2.15;;;;;;;;;;5094759;28;20102;-31
2022/12/12 10:56:37;;;;;;;13.50;3.15;;;;;;;;;;5095354;28;20028;-32
2022/12/12 10:59:04;;;;;;;14.60;3.30;;;;;;;;;;5094870;28;20024;-32
2022/12/12 11:01:35;;;;;;;9.27;3.20;;;;;;;;;;5094918;28;20362;-31
2022/12/12 11:04:03;;;;;;;8.98;2.40;;;;;;;;;;5094356;28;20370;-31
2022/12/12 11:06:36;;;;;;;7.10;2.70;;;;;;;;;;5076778;28;20032;-32
2022/12/12 11:09:15;;;;;;;10.38;2.65;;;;;;;;;;5094499;28;20107;-33
2022/12/12 11:11:55;;;;;;;7.40;3.30;;;;;;;;;;5094550;28;20062;-31
2022/12/12 11:14:26;;;;;;;16.25;3.50;;;;;;;;;;5094951;28;20020;-31
2022/12/12 11:16:52;;;;;;;11.98;3.50;;;;;;;;;;5094881;28;20036;-30
2022/12/12 11:19:23;;;;;;;5.97;2.70;;;;;;;;;;5076556;28;20036;-30
2022/12/12 11:21:55;;;;;;;5.03;2.28;;;;;;;;;;5094320;28;20059;-31
2022/12/12 11:24:23;;;;;;;12.10;3.60;;;;;;;;;;5095008;28;20032;-31
2022/12/12 11:26:55;;;;;;;8.23;2.63;;;;;;;;;;5094777;28;20020;-31
2022/12/12 11:29:26;;;;;;;12.60;2.95;;;;;;;;;;5076715;28;20040;-31
2022/12/12 11:31:52;;;;;;;11.32;2.88;;;;;;;;;;5094698;28;20355;-30
2022/12/12 11:34:20;;;;;;;17.10;3.47;;;;;;;;;;5094403;28;20028;-31
2022/12/12 11:36:47;;;;;;;12.68;3.47;;;;;;;;;;5094732;28;20100;-30
2022/12/12 11:39:22;;;;;;;15.32;2.70;;;;;;;;;;5093466;28;20029;-30
2022/12/12 11:42:07;;;;;;;11.00;2.88;;;;;;;;;;5094620;28;20105;-31
2022/12/12 11:44:37;;;;;;;11.52;2.65;;;;;;;;;;5094363;28;20036;-30
2022/12/12 11:47:23;;;;;;;10.90;2.77;;;;;;;;;;5094564;28;20036;-31
2022/12/12 11:49:59;;;;;;;5.32;2.28;;;;;;;;;;5094347;28;20024;-31
2022/12/12 11:52:28;;;;;;;11.77;3.40;;;;;;;;;;5094257;28;20040;-31
2022/12/12 11:54:54;;;;;;;6.00;2.58;;;;;;;;;;5094759;28;20036;-31
2022/12/12 11:57:44;;;;;;;9.65;3.13;;;;;;;;;;5094488;28;20040;-30
2022/12/12 12:00:14;;;;;;;8.95;2.55;;;;;;;;;;5094507;28;20032;-31
2022/12/12 12:02:46;;;;;;;8.18;2.58;;;;;;;;;;5094253;28;20447;-30
2022/12/12 12:05:31;;;;;;;7.47;2.28;;;;;;;;;;5094444;28;20055;-30
2022/12/12 12:08:17;;;;;;;8.35;2.58;;;;;;;;;;5095061;28;20031;-31
2022/12/12 12:10:43;;;;;;;5.47;2.63;;;;;;;;;;5094022;28;20036;-30
2022/12/12 12:13:18;;;;;;;5.65;2.53;;;;;;;;;;5093813;28;20085;-31
2022/12/12 12:15:51;;;;;;;6.57;2.47;;;;;;;;;;5094343;28;20396;-30
2022/12/12 12:18:35;;;;;;;7.82;3.28;;;;;;;;;;5093938;28;20048;-31
2022/12/12 12:21:12;;;;;;;9.75;3.08;;;;;;;;;;5093968;28;20115;-32
2022/12/12 12:23:38;;;;;;;3.83;2.15;;;;;;;;;;5097974;28;20028;-31
2022/12/12 12:26:12;;;;;;;10.57;2.88;;;;;;;;;;5098195;28;20066;-31
2022/12/12 12:28:38;;;;;;;8.23;2.20;;;;;;;;;;5097855;28;20028;-31
2022/12/12 12:31:09;;;;;;;7.47;2.53;;;;;;;;;;5097835;28;20031;-31
2022/12/12 12:33:43;;;;;;;14.45;3.53;;;;;;;;;;5097165;28;20039;-30
2022/12/12 12:36:12;;;;;;;14.50;2.60;;;;;;;;;;5097889;28;20162;-31
2022/12/12 12:38:38;;;;;;;8.23;2.85;;;;;;;;;;5097622;28;20118;-31
2022/12/12 12:41:25;;;;;;;7.00;2.40;;;;;;;;;;5097407;28;20096;-30
2022/12/12 12:44:23;;;;;;;4.00;2.83;;;;;;;;;;5097576;28;20404;-31
2022/12/12 12:46:49;;;;;;;7.32;2.65;;;;;;;;;;5053180;28;20047;-30
2022/12/12 12:49:27;;;;;;;7.90;2.53;;;;;;;;;;5097486;28;20404;-30
2022/12/12 12:51:56;;;;;;;8.25;2.60;;;;;;;;;;5097083;28;20027;-30
2022/12/12 12:54:24;;;;;;;5.68;2.25;;;;;;;;;;5097057;28;20032;-31
2022/12/12 12:57:13;;;;;;;5.97;2.72;;;;;;;;;;5097429;28;20058;-30
2022/12/12 12:59:42;;;;;;;10.35;2.45;;;;;;;;;;5086544;28;20050;-32
2022/12/12 13:02:37;;;;;;;8.98;2.70;;;;;;;;;;5096729;28;20056;-31
2022/12/12 13:05:16;;;;;;;9.90;2.40;;;;;;;;;;5080035;28;20347;-33
2022/12/12 13:07:45;;;;;;;7.13;3.33;;;;;;;;;;5096446;28;20039;-32
2022/12/12 13:10:17;;;;;;;9.05;2.60;;;;;;;;;;5097007;28;20059;-32
2022/12/12 13:12:47;;;;;;;9.60;3.15;;;;;;;;;;5096941;28;20107;-32
2022/12/12 13:15:19;;;;;;;6.13;2.30;;;;;;;;;;5096999;28;20032;-31
2022/12/12 13:18:03;;;;;;;8.13;2.70;;;;;;;;;;5096733;28;20035;-31
2022/12/12 13:20:39;;;;;;;8.45;2.85;;;;;;;;;;5096759;28;20078;-32
2022/12/12 13:23:14;;;;;;;8.88;2.45;;;;;;;;;;5096825;28;20024;-33
2022/12/12 13:25:59;;;;;;;7.93;2.38;;;;;;;;;;5096486;28;20043;-32
2022/12/12 13:28:27;;;;;;;6.65;2.50;;;;;;;;;;5096548;28;20095;-30
2022/12/12 13:30:56;;;;;;;10.05;2.47;;;;;;;;;;5096457;28;20412;-32
2022/12/12 13:33:32;;;;;;;12.00;2.17;;;;;;;;;;5096467;28;20397;-32
2022/12/12 13:36:06;;;;;;;5.65;2.55;;;;;;;;;;5096391;28;20038;-31
2022/12/12 13:38:32;;;;;;;7.65;2.35;;;;;;;;;;5095822;28;20119;-31
2022/12/12 13:41:00;;;;;;;8.80;3.05;;;;;;;;;;5096502;28;20051;-31
2022/12/12 13:43:26;;;;;;;11.40;2.70;;;;;;;;;;5096368;28;20469;-32
2022/12/12 13:45:53;;;;;;;4.28;2.55;;;;;;;;;;5095991;28;20047;-31
2022/12/12 13:48:28;;;;;;;13.00;3.05;;;;;;;;;;5078196;28;20470;-32
2022/12/12 13:51:13;;;;;;;3.22;1.67;;;;;;;;;;5096193;28;20028;-32
2022/12/12 13:53:39;;;;;;;5.60;2.67;;;;;;;;;;5095797;28;20103;-31
2022/12/12 13:56:38;;;;;;;8.82;1.98;;;;;;;;;;5095746;28;20028;-31
2022/12/12 13:59:24;;;;;;;10.77;2.97;;;;;;;;;;5034585;28;20123;-31
2022/12/12 14:01:57;;;;;;;8.43;2.22;;;;;;;;;;5095567;28;20052;-30
2022/12/12 14:04:26;;;;;;;8.55;2.30;;;;;;;;;;5095387;28;20048;-30
2022/12/12 14:06:58;;;;;;;7.90;2.53;;;;;;;;;;5095652;28;20118;-31
2022/12/12 14:09:28;;;;;;;10.23;4.50;;;;;;;;;;5095563;28;20108;-32
2022/12/12 14:12:02;;;;;;;7.95;2.60;;;;;;;;;;5095514;28;20040;-32
2022/12/12 14:14:28;;;;;;;8.25;2.70;;;;;;;;;;5077858;28;20474;-32
2022/12/12 14:16:55;;;;;;;8.40;2.78;;;;;;;;;;5095646;28;20020;-31
2022/12/12 14:19:25;;;;;;;10.02;3.15;;;;;;;;;;5095549;28;20515;-31
2022/12/12 14:21:51;;;;;;;7.88;2.58;;;;;;;;;;5077683;28;20462;-31
2022/12/12 14:24:32;;;;;;;5.20;3.05;;;;;;;;;;5095691;28;20045;-31
2022/12/12 14:26:59;;;;;;;14.38;2.78;;;;;;;;;;5095360;28;20024;-31
2022/12/12 14:29:29;;;;;;;9.40;2.50;;;;;;;;;;5077573;28;20107;-32
2022/12/12 14:31:55;;;;;;;4.90;2.20;;;;;;;;;;5095584;28;20020;-31
2022/12/12 14:34:33;;;;;;;4.43;2.47;;;;;;;;;;5095630;28;20415;-31
2022/12/12 14:37:05;;;;;;;12.45;3.42;;;;;;;;;;5095188;28;20039;-31
2022/12/12 14:39:32;;;;;;;11.10;2.50;;;;;;;;;;5095200;28;20465;-32
2022/12/12 14:41:58;;;;;;;6.15;3.92;;;;;;;;;;5095153;28;20047;-30
2022/12/12 14:44:26;;;;;;;8.55;2.13;;;;;;;;;;5076728;28;20056;-31
2022/12/12 14:46:52;;;;;;;7.78;2.38;;;;;;;;;;5095121;28;20336;-32
2022/12/12 14:49:19;;;;;;;14.40;2.97;;;;;;;;;;5095334;28;20020;-30
2022/12/12 14:51:46;;;;;;;8.02;2.50;;;;;;;;;;5094975;28;20044;-32
2022/12/12 14:54:17;;;;;;;8.63;2.67;;;;;;;;;;5095123;28;20469;-30
2022/12/12 14:56:45;;;;;;;7.27;2.93;;;;;;;;;;5095069;28;20036;-30
2022/12/12 14:59:17;;;;;;;3.17;2.47;;;;;;;;;;5095221;28;20290;-31
2022/12/12 15:01:48;;;;;;;7.75;2.42;;;;;;;;;;5094575;28;20394;-32
2022/12/12 15:04:18;;;;;;;7.60;2.72;;;;;;;;;;5094525;28;20055;-32
2022/12/12 15:06:54;;;;;;;7.13;2.58;;;;;;;;;;5094715;28;20077;-32
2022/12/12 15:09:31;;;;;;;3.00;2.15;;;;;;;;;;5095701;28;20024;-32